sensor_id;sensor_type;location;lat;lon;timestamp;temperature;humidity
3356;DHT22;1691;52.486;13.374;2023-05-27T00:01:14;12.30;76.30
3356;DHT22;1691;52.486;13.374;2023-05-27T00:03:44;12.30;76.70
3356;DHT22;1691;52.486;13.374;2023-05-27T00:06:12;12.20;76.70
3356;DHT22;1691;52.486;13.374;2023-05-27T00:08:38;12.20;76.90
3356;DHT22;1691;52.486;13.374;2023-05-27T00:11:05;12.20;77.00
3356;DHT22;1691;52.486;13.374;2023-05-27T00:13:32;12.20;77.00
3356;DHT22;1691;52.486;13.374;2023-05-27T00:15:59;12.10;77.40
3356;DHT22;1691;52.486;13.374;2023-05-27T00:18:27;12.10;77.40
3356;DHT22;1691;52.486;13.374;2023-05-27T00:20:54;12.00;77.80
3356;DHT22;1691;52.486;13.374;2023-05-27T00:23:21;12.00;78.00
3356;DHT22;1691;52.486;13.374;2023-05-27T00:25:48;12.00;78.20
3356;DHT22;1691;52.486;13.374;2023-05-27T00:28:15;12.00;78.30
3356;DHT22;1691;52.486;13.374;2023-05-27T00:30:42;11.90;78.50
3356;DHT22;1691;52.486;13.374;2023-05-27T00:33:09;11.90;78.70
3356;DHT22;1691;52.486;13.374;2023-05-27T00:35:36;11.90;79.10
3356;DHT22;1691;52.486;13.374;2023-05-27T00:38:04;11.80;79.30
3356;DHT22;1691;52.486;13.374;2023-05-27T00:40:34;11.80;79.30
3356;DHT22;1691;52.486;13.374;2023-05-27T00:43:02;11.80;79.70
3356;DHT22;1691;52.486;13.374;2023-05-27T00:45:29;11.70;79.70
3356;DHT22;1691;52.486;13.374;2023-05-27T00:47:58;11.70;79.80
3356;DHT22;1691;52.486;13.374;2023-05-27T00:50:27;11.70;79.80
3356;DHT22;1691;52.486;13.374;2023-05-27T00:52:55;11.70;80.00
3356;DHT22;1691;52.486;13.374;2023-05-27T00:55:26;11.60;80.20
3356;DHT22;1691;52.486;13.374;2023-05-27T00:57:54;11.60;80.40
3356;DHT22;1691;52.486;13.374;2023-05-27T01:00:22;11.60;80.60
3356;DHT22;1691;52.486;13.374;2023-05-27T01:02:49;11.60;80.60
3356;DHT22;1691;52.486;13.374;2023-05-27T01:05:18;11.60;80.80
3356;DHT22;1691;52.486;13.374;2023-05-27T01:10:48;11.50;81.10
3356;DHT22;1691;52.486;13.374;2023-05-27T01:16:11;11.50;81.00
3356;DHT22;1691;52.486;13.374;2023-05-27T01:18:40;11.50;81.10
3356;DHT22;1691;52.486;13.374;2023-05-27T01:21:13;11.50;81.10
3356;DHT22;1691;52.486;13.374;2023-05-27T01:23:48;11.50;81.30
3356;DHT22;1691;52.486;13.374;2023-05-27T01:26:15;11.40;81.50
3356;DHT22;1691;52.486;13.374;2023-05-27T01:28:43;11.40;81.70
3356;DHT22;1691;52.486;13.374;2023-05-27T01:33:42;11.30;82.10
3356;DHT22;1691;52.486;13.374;2023-05-27T01:36:16;11.30;82.30
3356;DHT22;1691;52.486;13.374;2023-05-27T01:38:46;11.30;82.40
3356;DHT22;1691;52.486;13.374;2023-05-27T01:41:14;11.30;82.60
3356;DHT22;1691;52.486;13.374;2023-05-27T01:43:43;11.30;82.60
3356;DHT22;1691;52.486;13.374;2023-05-27T01:46:10;11.30;82.80
3356;DHT22;1691;52.486;13.374;2023-05-27T01:48:37;11.20;83.00
3356;DHT22;1691;52.486;13.374;2023-05-27T01:51:04;11.20;83.00
3356;DHT22;1691;52.486;13.374;2023-05-27T01:53:31;11.20;83.20
3356;DHT22;1691;52.486;13.374;2023-05-27T01:55:58;11.20;83.20
3356;DHT22;1691;52.486;13.374;2023-05-27T01:58:26;11.10;83.40
3356;DHT22;1691;52.486;13.374;2023-05-27T02:00:53;11.10;83.80
3356;DHT22;1691;52.486;13.374;2023-05-27T02:03:20;11.00;83.80
3356;DHT22;1691;52.486;13.374;2023-05-27T02:05:47;11.00;84.10
3356;DHT22;1691;52.486;13.374;2023-05-27T02:08:14;11.00;84.30
3356;DHT22;1691;52.486;13.374;2023-05-27T02:10:41;11.00;84.30
3356;DHT22;1691;52.486;13.374;2023-05-27T02:13:08;11.00;84.50
3356;DHT22;1691;52.486;13.374;2023-05-27T02:15:35;11.00;84.50
3356;DHT22;1691;52.486;13.374;2023-05-27T02:18:02;11.00;84.70
3356;DHT22;1691;52.486;13.374;2023-05-27T02:20:31;11.00;84.90
3356;DHT22;1691;52.486;13.374;2023-05-27T02:23:00;10.90;85.10
3356;DHT22;1691;52.486;13.374;2023-05-27T02:25:27;10.90;85.20
3356;DHT22;1691;52.486;13.374;2023-05-27T02:27:54;10.90;85.20
3356;DHT22;1691;52.486;13.374;2023-05-27T02:30:21;10.90;85.40
3356;DHT22;1691;52.486;13.374;2023-05-27T02:32:48;10.90;85.40
3356;DHT22;1691;52.486;13.374;2023-05-27T02:35:15;10.90;85.60
3356;DHT22;1691;52.486;13.374;2023-05-27T02:37:42;10.80;85.80
3356;DHT22;1691;52.486;13.374;2023-05-27T02:40:10;10.80;86.00
3356;DHT22;1691;52.486;13.374;2023-05-27T02:42:37;10.80;86.00
3356;DHT22;1691;52.486;13.374;2023-05-27T02:45:04;10.80;86.20
3356;DHT22;1691;52.486;13.374;2023-05-27T02:47:33;10.80;86.40
3356;DHT22;1691;52.486;13.374;2023-05-27T02:50:00;10.80;86.50
3356;DHT22;1691;52.486;13.374;2023-05-27T02:52:27;10.70;86.50
3356;DHT22;1691;52.486;13.374;2023-05-27T02:54:54;10.70;86.70
3356;DHT22;1691;52.486;13.374;2023-05-27T02:57:21;10.70;86.90
3356;DHT22;1691;52.486;13.374;2023-05-27T02:59:48;10.70;86.90
3356;DHT22;1691;52.486;13.374;2023-05-27T03:02:15;10.70;87.10
3356;DHT22;1691;52.486;13.374;2023-05-27T03:04:42;10.70;87.50
3356;DHT22;1691;52.486;13.374;2023-05-27T03:07:09;10.70;87.70
3356;DHT22;1691;52.486;13.374;2023-05-27T03:09:36;10.70;87.90
3356;DHT22;1691;52.486;13.374;2023-05-27T03:12:03;10.70;87.90
3356;DHT22;1691;52.486;13.374;2023-05-27T03:14:32;10.70;87.90
3356;DHT22;1691;52.486;13.374;2023-05-27T03:16:59;10.70;88.00
3356;DHT22;1691;52.486;13.374;2023-05-27T03:19:26;10.70;88.20
3356;DHT22;1691;52.486;13.374;2023-05-27T03:21:53;10.70;88.20
3356;DHT22;1691;52.486;13.374;2023-05-27T03:24:20;10.80;88.40
3356;DHT22;1691;52.486;13.374;2023-05-27T03:26:47;10.80;88.20
3356;DHT22;1691;52.486;13.374;2023-05-27T03:29:14;10.80;88.40
3356;DHT22;1691;52.486;13.374;2023-05-27T03:31:42;10.80;88.40
3356;DHT22;1691;52.486;13.374;2023-05-27T03:34:09;10.90;88.40
3356;DHT22;1691;52.486;13.374;2023-05-27T03:36:36;10.90;88.40
3356;DHT22;1691;52.486;13.374;2023-05-27T03:39:05;11.00;88.40
3356;DHT22;1691;52.486;13.374;2023-05-27T03:41:32;11.00;88.40
3356;DHT22;1691;52.486;13.374;2023-05-27T03:43:59;11.10;88.40
3356;DHT22;1691;52.486;13.374;2023-05-27T03:46:26;11.10;88.60
3356;DHT22;1691;52.486;13.374;2023-05-27T03:48:54;11.10;88.40
3356;DHT22;1691;52.486;13.374;2023-05-27T03:51:21;11.20;88.20
3356;DHT22;1691;52.486;13.374;2023-05-27T03:53:48;11.30;88.20
3356;DHT22;1691;52.486;13.374;2023-05-27T03:56:15;11.40;88.20
3356;DHT22;1691;52.486;13.374;2023-05-27T03:58:42;11.50;88.00
3356;DHT22;1691;52.486;13.374;2023-05-27T04:01:12;11.60;88.00
3356;DHT22;1691;52.486;13.374;2023-05-27T04:03:39;11.70;88.00
3356;DHT22;1691;52.486;13.374;2023-05-27T04:06:09;12.00;88.00
3356;DHT22;1691;52.486;13.374;2023-05-27T04:08:36;12.30;87.90
3356;DHT22;1691;52.486;13.374;2023-05-27T04:11:05;12.70;87.30
3356;DHT22;1691;52.486;13.374;2023-05-27T04:13:32;13.20;86.40
3356;DHT22;1691;52.486;13.374;2023-05-27T04:15:59;13.60;85.20
3356;DHT22;1691;52.486;13.374;2023-05-27T04:18:26;14.00;83.90
3356;DHT22;1691;52.486;13.374;2023-05-27T04:20:53;14.40;82.80
3356;DHT22;1691;52.486;13.374;2023-05-27T04:23:21;14.80;81.70
3356;DHT22;1691;52.486;13.374;2023-05-27T04:25:49;15.20;80.20
3356;DHT22;1691;52.486;13.374;2023-05-27T04:28:18;15.70;78.70
3356;DHT22;1691;52.486;13.374;2023-05-27T04:30:45;16.10;77.20
3356;DHT22;1691;52.486;13.374;2023-05-27T04:33:15;16.50;75.70
3356;DHT22;1691;52.486;13.374;2023-05-27T04:35:42;16.90;73.90
3356;DHT22;1691;52.486;13.374;2023-05-27T04:38:11;17.20;72.60
3356;DHT22;1691;52.486;13.374;2023-05-27T04:40:43;17.50;71.10
3356;DHT22;1691;52.486;13.374;2023-05-27T04:43:13;17.70;69.80
3356;DHT22;1691;52.486;13.374;2023-05-27T04:45:41;17.90;68.70
3356;DHT22;1691;52.486;13.374;2023-05-27T04:48:10;18.20;67.50
3356;DHT22;1691;52.486;13.374;2023-05-27T04:50:37;18.50;66.10
3356;DHT22;1691;52.486;13.374;2023-05-27T04:53:04;18.70;64.70
3356;DHT22;1691;52.486;13.374;2023-05-27T04:55:33;18.80;64.00
3356;DHT22;1691;52.486;13.374;2023-05-27T04:58:01;19.00;62.70
3356;DHT22;1691;52.486;13.374;2023-05-27T05:00:30;19.20;62.00
3356;DHT22;1691;52.486;13.374;2023-05-27T05:03:18;19.40;60.80
3356;DHT22;1691;52.486;13.374;2023-05-27T05:05:50;19.60;60.30
3356;DHT22;1691;52.486;13.374;2023-05-27T05:08:19;19.90;59.30
3356;DHT22;1691;52.486;13.374;2023-05-27T05:10:47;20.40;58.10
3356;DHT22;1691;52.486;13.374;2023-05-27T05:13:15;20.80;56.70
3356;DHT22;1691;52.486;13.374;2023-05-27T05:15:42;21.20;55.60
3356;DHT22;1691;52.486;13.374;2023-05-27T05:18:12;21.50;54.50
3356;DHT22;1691;52.486;13.374;2023-05-27T05:20:40;21.90;53.50
3356;DHT22;1691;52.486;13.374;2023-05-27T05:23:08;22.10;52.50
3356;DHT22;1691;52.486;13.374;2023-05-27T05:25:36;22.30;51.60
3356;DHT22;1691;52.486;13.374;2023-05-27T05:28:05;22.60;51.00
3356;DHT22;1691;52.486;13.374;2023-05-27T05:30:32;22.70;50.20
3356;DHT22;1691;52.486;13.374;2023-05-27T05:32:59;23.00;49.30
3356;DHT22;1691;52.486;13.374;2023-05-27T05:35:28;23.40;48.50
3356;DHT22;1691;52.486;13.374;2023-05-27T05:37:55;23.90;47.30
3356;DHT22;1691;52.486;13.374;2023-05-27T05:40:22;24.30;46.20
3356;DHT22;1691;52.486;13.374;2023-05-27T05:42:50;24.60;45.30
3356;DHT22;1691;52.486;13.374;2023-05-27T05:45:17;24.90;44.40
3356;DHT22;1691;52.486;13.374;2023-05-27T05:47:44;25.20;43.30
3356;DHT22;1691;52.486;13.374;2023-05-27T05:50:11;25.40;42.40
3356;DHT22;1691;52.486;13.374;2023-05-27T05:52:38;25.60;41.50
3356;DHT22;1691;52.486;13.374;2023-05-27T05:55:05;25.90;40.70
3356;DHT22;1691;52.486;13.374;2023-05-27T05:57:33;26.30;39.60
3356;DHT22;1691;52.486;13.374;2023-05-27T06:00:02;26.70;38.40
3356;DHT22;1691;52.486;13.374;2023-05-27T06:02:30;27.00;37.50
3356;DHT22;1691;52.486;13.374;2023-05-27T06:04:57;27.20;36.50
3356;DHT22;1691;52.486;13.374;2023-05-27T06:07:24;27.10;36.10
3356;DHT22;1691;52.486;13.374;2023-05-27T06:09:51;27.10;35.90
3356;DHT22;1691;52.486;13.374;2023-05-27T06:12:18;27.40;35.20
3356;DHT22;1691;52.486;13.374;2023-05-27T06:14:45;27.70;34.10
3356;DHT22;1691;52.486;13.374;2023-05-27T06:17:13;28.00;33.50
3356;DHT22;1691;52.486;13.374;2023-05-27T06:19:40;28.20;32.70
3356;DHT22;1691;52.486;13.374;2023-05-27T06:22:07;28.30;32.40
3356;DHT22;1691;52.486;13.374;2023-05-27T06:24:34;28.50;31.50
3356;DHT22;1691;52.486;13.374;2023-05-27T06:27:01;28.50;30.70
3356;DHT22;1691;52.486;13.374;2023-05-27T06:29:29;28.60;29.90
3356;DHT22;1691;52.486;13.374;2023-05-27T06:31:56;28.80;29.40
3356;DHT22;1691;52.486;13.374;2023-05-27T06:34:23;29.00;28.90
3356;DHT22;1691;52.486;13.374;2023-05-27T06:36:50;28.60;28.60
3356;DHT22;1691;52.486;13.374;2023-05-27T06:39:17;28.60;28.40
3356;DHT22;1691;52.486;13.374;2023-05-27T06:41:44;29.00;27.80
3356;DHT22;1691;52.486;13.374;2023-05-27T06:44:11;29.50;27.20
3356;DHT22;1691;52.486;13.374;2023-05-27T06:46:38;29.80;26.50
3356;DHT22;1691;52.486;13.374;2023-05-27T06:49:05;29.90;26.10
3356;DHT22;1691;52.486;13.374;2023-05-27T06:51:32;30.20;25.80
3356;DHT22;1691;52.486;13.374;2023-05-27T06:53:59;30.50;25.20
3356;DHT22;1691;52.486;13.374;2023-05-27T06:56:26;30.50;24.70
3356;DHT22;1691;52.486;13.374;2023-05-27T06:58:53;30.60;24.60
3356;DHT22;1691;52.486;13.374;2023-05-27T07:01:20;30.60;24.20
3356;DHT22;1691;52.486;13.374;2023-05-27T07:03:47;30.80;24.10
3356;DHT22;1691;52.486;13.374;2023-05-27T07:06:14;31.00;23.80
3356;DHT22;1691;52.486;13.374;2023-05-27T07:08:42;30.90;23.30
3356;DHT22;1691;52.486;13.374;2023-05-27T07:11:09;30.90;22.90
3356;DHT22;1691;52.486;13.374;2023-05-27T07:13:36;31.00;22.90
3356;DHT22;1691;52.486;13.374;2023-05-27T07:16:03;31.60;22.70
3356;DHT22;1691;52.486;13.374;2023-05-27T07:18:30;32.10;22.30
3356;DHT22;1691;52.486;13.374;2023-05-27T07:20:57;32.40;22.00
3356;DHT22;1691;52.486;13.374;2023-05-27T07:23:24;32.50;21.80
3356;DHT22;1691;52.486;13.374;2023-05-27T07:25:51;32.60;21.70
3356;DHT22;1691;52.486;13.374;2023-05-27T07:28:19;33.10;21.40
3356;DHT22;1691;52.486;13.374;2023-05-27T07:30:46;33.30;20.90
3356;DHT22;1691;52.486;13.374;2023-05-27T07:33:14;33.30;20.60
3356;DHT22;1691;52.486;13.374;2023-05-27T07:35:41;33.00;20.50
3356;DHT22;1691;52.486;13.374;2023-05-27T07:38:08;33.10;20.30
3356;DHT22;1691;52.486;13.374;2023-05-27T07:40:35;33.20;20.00
3356;DHT22;1691;52.486;13.374;2023-05-27T07:43:02;33.60;19.60
3356;DHT22;1691;52.486;13.374;2023-05-27T07:45:29;34.10;19.20
3356;DHT22;1691;52.486;13.374;2023-05-27T07:47:57;34.40;18.80
3356;DHT22;1691;52.486;13.374;2023-05-27T07:50:24;34.60;18.50
3356;DHT22;1691;52.486;13.374;2023-05-27T07:52:51;34.60;18.50
3356;DHT22;1691;52.486;13.374;2023-05-27T07:55:18;35.00;18.30
3356;DHT22;1691;52.486;13.374;2023-05-27T07:57:45;35.10;18.20
3356;DHT22;1691;52.486;13.374;2023-05-27T08:00:12;35.00;18.30
3356;DHT22;1691;52.486;13.374;2023-05-27T08:02:40;34.80;18.10
3356;DHT22;1691;52.486;13.374;2023-05-27T08:05:09;34.70;17.90
3356;DHT22;1691;52.486;13.374;2023-05-27T08:07:37;34.60;17.70
3356;DHT22;1691;52.486;13.374;2023-05-27T08:10:05;34.80;17.70
3356;DHT22;1691;52.486;13.374;2023-05-27T08:12:34;35.30;17.60
3356;DHT22;1691;52.486;13.374;2023-05-27T08:15:01;35.70;17.50
3356;DHT22;1691;52.486;13.374;2023-05-27T08:17:28;36.10;17.40
3356;DHT22;1691;52.486;13.374;2023-05-27T08:19:56;35.90;17.20
3356;DHT22;1691;52.486;13.374;2023-05-27T08:22:23;35.70;17.40
3356;DHT22;1691;52.486;13.374;2023-05-27T08:24:50;35.80;17.30
3356;DHT22;1691;52.486;13.374;2023-05-27T08:27:17;35.60;17.10
3356;DHT22;1691;52.486;13.374;2023-05-27T08:29:45;35.10;17.00
3356;DHT22;1691;52.486;13.374;2023-05-27T08:32:12;34.70;17.10
3356;DHT22;1691;52.486;13.374;2023-05-27T08:34:39;34.70;17.10
3356;DHT22;1691;52.486;13.374;2023-05-27T08:37:07;35.00;16.90
3356;DHT22;1691;52.486;13.374;2023-05-27T08:39:35;35.20;16.70
3356;DHT22;1691;52.486;13.374;2023-05-27T08:42:02;35.60;16.40
3356;DHT22;1691;52.486;13.374;2023-05-27T08:44:30;35.90;16.20
3356;DHT22;1691;52.486;13.374;2023-05-27T08:46:58;36.10;15.90
3356;DHT22;1691;52.486;13.374;2023-05-27T08:49:25;36.30;15.80
3356;DHT22;1691;52.486;13.374;2023-05-27T08:51:54;36.50;15.70
3356;DHT22;1691;52.486;13.374;2023-05-27T08:54:21;36.50;15.60
3356;DHT22;1691;52.486;13.374;2023-05-27T08:56:49;36.50;15.30
3356;DHT22;1691;52.486;13.374;2023-05-27T08:59:20;36.40;15.20
3356;DHT22;1691;52.486;13.374;2023-05-27T09:01:48;36.30;15.20
3356;DHT22;1691;52.486;13.374;2023-05-27T09:04:15;36.30;15.00
3356;DHT22;1691;52.486;13.374;2023-05-27T09:06:42;36.60;14.80
3356;DHT22;1691;52.486;13.374;2023-05-27T09:09:10;36.80;14.60
3356;DHT22;1691;52.486;13.374;2023-05-27T09:11:41;36.60;14.60
3356;DHT22;1691;52.486;13.374;2023-05-27T09:14:21;36.30;14.80
3356;DHT22;1691;52.486;13.374;2023-05-27T09:16:48;36.40;15.00
3356;DHT22;1691;52.486;13.374;2023-05-27T09:19:19;36.60;14.80
3356;DHT22;1691;52.486;13.374;2023-05-27T09:21:46;36.50;14.90
3356;DHT22;1691;52.486;13.374;2023-05-27T09:24:14;36.60;15.00
3356;DHT22;1691;52.486;13.374;2023-05-27T09:26:41;36.90;14.90
3356;DHT22;1691;52.486;13.374;2023-05-27T09:29:09;37.30;14.80
3356;DHT22;1691;52.486;13.374;2023-05-27T09:31:40;37.60;14.60
3356;DHT22;1691;52.486;13.374;2023-05-27T09:34:12;37.60;14.50
3356;DHT22;1691;52.486;13.374;2023-05-27T09:36:44;37.30;14.60
3356;DHT22;1691;52.486;13.374;2023-05-27T09:39:17;37.20;14.60
3356;DHT22;1691;52.486;13.374;2023-05-27T09:41:55;37.10;14.60
3356;DHT22;1691;52.486;13.374;2023-05-27T09:44:29;36.80;14.40
3356;DHT22;1691;52.486;13.374;2023-05-27T09:47:00;36.30;14.70
3356;DHT22;1691;52.486;13.374;2023-05-27T09:49:29;36.20;14.90
3356;DHT22;1691;52.486;13.374;2023-05-27T09:52:00;36.10;14.90
3356;DHT22;1691;52.486;13.374;2023-05-27T09:54:28;36.10;15.00
3356;DHT22;1691;52.486;13.374;2023-05-27T09:56:56;36.10;15.10
3356;DHT22;1691;52.486;13.374;2023-05-27T09:59:24;36.10;15.10
3356;DHT22;1691;52.486;13.374;2023-05-27T10:01:53;36.10;15.00
3356;DHT22;1691;52.486;13.374;2023-05-27T10:04:21;36.00;14.80
3356;DHT22;1691;52.486;13.374;2023-05-27T10:06:49;35.60;14.90
3356;DHT22;1691;52.486;13.374;2023-05-27T10:09:16;35.50;15.00
3356;DHT22;1691;52.486;13.374;2023-05-27T10:11:44;35.80;14.90
3356;DHT22;1691;52.486;13.374;2023-05-27T10:14:12;35.80;14.90
3356;DHT22;1691;52.486;13.374;2023-05-27T10:16:39;35.60;14.80
3356;DHT22;1691;52.486;13.374;2023-05-27T10:19:18;35.40;15.00
3356;DHT22;1691;52.486;13.374;2023-05-27T10:21:45;35.60;15.00
3356;DHT22;1691;52.486;13.374;2023-05-27T10:24:12;35.80;15.00
3356;DHT22;1691;52.486;13.374;2023-05-27T10:26:40;35.80;14.90
3356;DHT22;1691;52.486;13.374;2023-05-27T10:29:11;34.90;15.00
3356;DHT22;1691;52.486;13.374;2023-05-27T10:31:50;34.40;15.40
3356;DHT22;1691;52.486;13.374;2023-05-27T10:34:19;33.90;15.50
3356;DHT22;1691;52.486;13.374;2023-05-27T10:36:47;33.10;15.90
3356;DHT22;1691;52.486;13.374;2023-05-27T10:39:25;32.30;16.30
3356;DHT22;1691;52.486;13.374;2023-05-27T10:41:55;31.70;16.80
3356;DHT22;1691;52.486;13.374;2023-05-27T10:47:11;31.00;17.30
3356;DHT22;1691;52.486;13.374;2023-05-27T10:49:50;31.20;17.30
3356;DHT22;1691;52.486;13.374;2023-05-27T10:52:17;31.00;17.30
3356;DHT22;1691;52.486;13.374;2023-05-27T10:54:46;30.90;17.40
3356;DHT22;1691;52.486;13.374;2023-05-27T10:57:14;30.90;17.50
3356;DHT22;1691;52.486;13.374;2023-05-27T10:59:52;31.00;17.60
3356;DHT22;1691;52.486;13.374;2023-05-27T11:02:29;30.90;17.80
3356;DHT22;1691;52.486;13.374;2023-05-27T11:04:58;30.30;18.20
3356;DHT22;1691;52.486;13.374;2023-05-27T11:07:25;29.70;18.50
3356;DHT22;1691;52.486;13.374;2023-05-27T11:09:53;28.80;19.10
3356;DHT22;1691;52.486;13.374;2023-05-27T11:12:22;27.80;19.70
3356;DHT22;1691;52.486;13.374;2023-05-27T11:14:55;27.10;20.10
3356;DHT22;1691;52.486;13.374;2023-05-27T11:17:23;26.50;20.60
3356;DHT22;1691;52.486;13.374;2023-05-27T11:19:54;26.20;21.00
3356;DHT22;1691;52.486;13.374;2023-05-27T11:22:21;26.00;21.10
3356;DHT22;1691;52.486;13.374;2023-05-27T11:25:15;25.80;21.20
3356;DHT22;1691;52.486;13.374;2023-05-27T11:27:42;25.50;21.80
3356;DHT22;1691;52.486;13.374;2023-05-27T11:30:10;25.00;21.90
3356;DHT22;1691;52.486;13.374;2023-05-27T11:32:41;24.60;22.40
3356;DHT22;1691;52.486;13.374;2023-05-27T11:35:15;24.10;22.80
3356;DHT22;1691;52.486;13.374;2023-05-27T11:37:49;23.60;23.40
3356;DHT22;1691;52.486;13.374;2023-05-27T11:40:17;23.20;24.10
3356;DHT22;1691;52.486;13.374;2023-05-27T11:42:47;22.80;24.60
3356;DHT22;1691;52.486;13.374;2023-05-27T11:45:15;22.40;25.10
3356;DHT22;1691;52.486;13.374;2023-05-27T11:47:44;22.20;25.40
3356;DHT22;1691;52.486;13.374;2023-05-27T11:50:16;22.10;25.50
3356;DHT22;1691;52.486;13.374;2023-05-27T11:52:57;22.00;25.50
3356;DHT22;1691;52.486;13.374;2023-05-27T11:55:25;22.10;25.70
3356;DHT22;1691;52.486;13.374;2023-05-27T11:57:52;22.10;25.60
3356;DHT22;1691;52.486;13.374;2023-05-27T12:00:19;22.10;25.60
3356;DHT22;1691;52.486;13.374;2023-05-27T12:02:46;22.10;25.70
3356;DHT22;1691;52.486;13.374;2023-05-27T12:05:14;22.10;25.80
3356;DHT22;1691;52.486;13.374;2023-05-27T12:07:59;22.10;25.90
3356;DHT22;1691;52.486;13.374;2023-05-27T12:10:26;22.10;26.00
3356;DHT22;1691;52.486;13.374;2023-05-27T12:12:53;22.10;26.20
3356;DHT22;1691;52.486;13.374;2023-05-27T12:15:29;22.10;26.30
3356;DHT22;1691;52.486;13.374;2023-05-27T12:17:56;22.10;26.40
3356;DHT22;1691;52.486;13.374;2023-05-27T12:20:23;22.20;26.50
3356;DHT22;1691;52.486;13.374;2023-05-27T12:22:55;22.30;26.70
3356;DHT22;1691;52.486;13.374;2023-05-27T12:25:22;22.30;26.70
3356;DHT22;1691;52.486;13.374;2023-05-27T12:27:49;22.30;26.80
3356;DHT22;1691;52.486;13.374;2023-05-27T12:30:16;22.20;26.70
3356;DHT22;1691;52.486;13.374;2023-05-27T12:32:44;22.00;26.70
3356;DHT22;1691;52.486;13.374;2023-05-27T12:35:11;21.80;26.70
3356;DHT22;1691;52.486;13.374;2023-05-27T12:37:38;21.60;26.80
3356;DHT22;1691;52.486;13.374;2023-05-27T12:40:05;21.60;27.00
3356;DHT22;1691;52.486;13.374;2023-05-27T12:42:35;21.60;27.00
3356;DHT22;1691;52.486;13.374;2023-05-27T12:45:03;21.60;27.00
3356;DHT22;1691;52.486;13.374;2023-05-27T12:47:30;21.60;27.10
3356;DHT22;1691;52.486;13.374;2023-05-27T12:49:57;21.60;27.20
3356;DHT22;1691;52.486;13.374;2023-05-27T12:52:24;21.50;27.20
3356;DHT22;1691;52.486;13.374;2023-05-27T12:54:51;21.50;27.20
3356;DHT22;1691;52.486;13.374;2023-05-27T12:57:18;21.60;27.20
3356;DHT22;1691;52.486;13.374;2023-05-27T12:59:45;21.60;27.30
3356;DHT22;1691;52.486;13.374;2023-05-27T13:02:12;21.50;27.30
3356;DHT22;1691;52.486;13.374;2023-05-27T13:04:39;21.50;27.30
3356;DHT22;1691;52.486;13.374;2023-05-27T13:07:10;21.40;27.20
3356;DHT22;1691;52.486;13.374;2023-05-27T13:09:39;21.30;27.20
3356;DHT22;1691;52.486;13.374;2023-05-27T13:12:06;21.30;27.20
3356;DHT22;1691;52.486;13.374;2023-05-27T13:14:33;21.30;27.20
3356;DHT22;1691;52.486;13.374;2023-05-27T13:17:00;21.30;27.20
3356;DHT22;1691;52.486;13.374;2023-05-27T13:19:28;21.30;27.20
3356;DHT22;1691;52.486;13.374;2023-05-27T13:21:55;21.40;27.30
3356;DHT22;1691;52.486;13.374;2023-05-27T13:24:22;21.50;27.20
3356;DHT22;1691;52.486;13.374;2023-05-27T13:26:50;21.60;27.10
3356;DHT22;1691;52.486;13.374;2023-05-27T13:29:17;21.70;27.00
3356;DHT22;1691;52.486;13.374;2023-05-27T13:31:44;21.70;26.80
3356;DHT22;1691;52.486;13.374;2023-05-27T13:34:12;21.70;26.80
3356;DHT22;1691;52.486;13.374;2023-05-27T13:36:39;21.70;26.80
3356;DHT22;1691;52.486;13.374;2023-05-27T13:39:06;21.80;26.90
3356;DHT22;1691;52.486;13.374;2023-05-27T13:41:33;21.70;26.90
3356;DHT22;1691;52.486;13.374;2023-05-27T13:44:00;21.70;27.00
3356;DHT22;1691;52.486;13.374;2023-05-27T13:46:27;21.60;27.10
3356;DHT22;1691;52.486;13.374;2023-05-27T13:48:56;21.60;27.20
3356;DHT22;1691;52.486;13.374;2023-05-27T13:51:22;21.60;27.30
3356;DHT22;1691;52.486;13.374;2023-05-27T13:53:49;21.60;27.60
3356;DHT22;1691;52.486;13.374;2023-05-27T13:56:16;21.60;27.50
3356;DHT22;1691;52.486;13.374;2023-05-27T13:58:43;21.50;27.60
3356;DHT22;1691;52.486;13.374;2023-05-27T14:01:11;21.60;27.60
3356;DHT22;1691;52.486;13.374;2023-05-27T14:03:38;21.50;27.80
3356;DHT22;1691;52.486;13.374;2023-05-27T14:06:06;21.50;27.90
3356;DHT22;1691;52.486;13.374;2023-05-27T14:08:34;21.40;27.90
3356;DHT22;1691;52.486;13.374;2023-05-27T14:11:02;21.50;27.90
3356;DHT22;1691;52.486;13.374;2023-05-27T14:13:29;21.50;27.80
3356;DHT22;1691;52.486;13.374;2023-05-27T14:15:56;21.50;27.80
3356;DHT22;1691;52.486;13.374;2023-05-27T14:18:23;21.50;27.90
3356;DHT22;1691;52.486;13.374;2023-05-27T14:20:50;21.60;27.80
3356;DHT22;1691;52.486;13.374;2023-05-27T14:23:17;21.60;27.70
3356;DHT22;1691;52.486;13.374;2023-05-27T14:25:45;21.70;27.80
3356;DHT22;1691;52.486;13.374;2023-05-27T14:28:12;21.70;27.90
3356;DHT22;1691;52.486;13.374;2023-05-27T14:30:39;21.80;28.00
3356;DHT22;1691;52.486;13.374;2023-05-27T14:33:06;21.70;28.20
3356;DHT22;1691;52.486;13.374;2023-05-27T14:35:36;21.70;28.30
3356;DHT22;1691;52.486;13.374;2023-05-27T14:38:04;21.80;28.30
3356;DHT22;1691;52.486;13.374;2023-05-27T14:40:33;21.90;28.20
3356;DHT22;1691;52.486;13.374;2023-05-27T14:43:00;21.90;28.20
3356;DHT22;1691;52.486;13.374;2023-05-27T14:45:28;21.90;28.20
3356;DHT22;1691;52.486;13.374;2023-05-27T14:47:55;21.90;28.20
3356;DHT22;1691;52.486;13.374;2023-05-27T14:50:23;21.80;28.20
3356;DHT22;1691;52.486;13.374;2023-05-27T14:52:51;21.80;28.30
3356;DHT22;1691;52.486;13.374;2023-05-27T14:55:20;21.70;28.30
3356;DHT22;1691;52.486;13.374;2023-05-27T14:57:47;21.70;28.40
3356;DHT22;1691;52.486;13.374;2023-05-27T15:00:14;21.70;28.40
3356;DHT22;1691;52.486;13.374;2023-05-27T15:02:41;21.70;28.40
3356;DHT22;1691;52.486;13.374;2023-05-27T15:05:09;21.60;28.30
3356;DHT22;1691;52.486;13.374;2023-05-27T15:07:37;21.60;28.20
3356;DHT22;1691;52.486;13.374;2023-05-27T15:10:05;21.60;28.10
3356;DHT22;1691;52.486;13.374;2023-05-27T15:12:39;21.60;28.10
3356;DHT22;1691;52.486;13.374;2023-05-27T15:15:11;21.70;28.20
3356;DHT22;1691;52.486;13.374;2023-05-27T15:17:40;21.70;28.10
3356;DHT22;1691;52.486;13.374;2023-05-27T15:20:14;21.70;28.10
3356;DHT22;1691;52.486;13.374;2023-05-27T15:22:44;21.70;28.20
3356;DHT22;1691;52.486;13.374;2023-05-27T15:25:12;21.80;28.10
3356;DHT22;1691;52.486;13.374;2023-05-27T15:27:40;21.80;28.00
3356;DHT22;1691;52.486;13.374;2023-05-27T15:30:07;21.90;27.90
3356;DHT22;1691;52.486;13.374;2023-05-27T15:32:34;21.80;27.60
3356;DHT22;1691;52.486;13.374;2023-05-27T15:35:01;21.80;27.40
3356;DHT22;1691;52.486;13.374;2023-05-27T15:37:30;21.70;27.20
3356;DHT22;1691;52.486;13.374;2023-05-27T15:39:57;21.70;27.10
3356;DHT22;1691;52.486;13.374;2023-05-27T15:42:24;21.70;26.90
3356;DHT22;1691;52.486;13.374;2023-05-27T15:44:52;21.70;26.70
3356;DHT22;1691;52.486;13.374;2023-05-27T15:47:19;21.70;26.60
3356;DHT22;1691;52.486;13.374;2023-05-27T15:49:46;21.70;26.70
3356;DHT22;1691;52.486;13.374;2023-05-27T15:52:13;21.70;26.80
3356;DHT22;1691;52.486;13.374;2023-05-27T15:54:41;21.70;26.90
3356;DHT22;1691;52.486;13.374;2023-05-27T15:57:09;21.70;27.00
3356;DHT22;1691;52.486;13.374;2023-05-27T15:59:37;21.70;27.10
3356;DHT22;1691;52.486;13.374;2023-05-27T16:02:05;21.80;27.20